sensor_id;sensor_type;location;lat;lon;timestamp;temperature;humidity
12049;DHT22;6085;49.452;8.502;2022-08-05T00:02:04;28.20;73.30
12049;DHT22;6085;49.452;8.502;2022-08-05T00:06:08;28.10;73.80
12049;DHT22;6085;49.452;8.502;2022-08-05T00:10:11;28.00;74.40
12049;DHT22;6085;49.452;8.502;2022-08-05T00:14:13;27.80;75.10
12049;DHT22;6085;49.452;8.502;2022-08-05T00:18:15;27.60;76.50
12049;DHT22;6085;49.452;8.502;2022-08-05T00:22:18;27.50;78.50
12049;DHT22;6085;49.452;8.502;2022-08-05T00:26:20;27.30;80.30
12049;DHT22;6085;49.452;8.502;2022-08-05T00:30:22;27.20;83.10
12049;DHT22;6085;49.452;8.502;2022-08-05T00:34:24;27.10;86.90
12049;DHT22;6085;49.452;8.502;2022-08-05T00:38:27;27.00;90.20
12049;DHT22;6085;49.452;8.502;2022-08-05T00:42:30;26.90;91.80
12049;DHT22;6085;49.452;8.502;2022-08-05T00:46:32;26.80;94.20
12049;DHT22;6085;49.452;8.502;2022-08-05T00:50:34;26.80;96.80
12049;DHT22;6085;49.452;8.502;2022-08-05T00:54:38;26.70;99.70
12049;DHT22;6085;49.452;8.502;2022-08-05T00:58:39;26.60;99.90
12049;DHT22;6085;49.452;8.502;2022-08-05T01:02:41;26.50;99.90
12049;DHT22;6085;49.452;8.502;2022-08-05T01:06:43;26.40;99.90
12049;DHT22;6085;49.452;8.502;2022-08-05T01:10:53;26.30;99.90
12049;DHT22;6085;49.452;8.502;2022-08-05T01:14:58;26.20;99.90
12049;DHT22;6085;49.452;8.502;2022-08-05T01:19:14;26.20;99.90
12049;DHT22;6085;49.452;8.502;2022-08-05T01:23:28;26.10;99.90
12049;DHT22;6085;49.452;8.502;2022-08-05T01:28:12;26.00;99.90
12049;DHT22;6085;49.452;8.502;2022-08-05T01:32:20;25.90;99.90
12049;DHT22;6085;49.452;8.502;2022-08-05T01:36:30;25.90;99.90
12049;DHT22;6085;49.452;8.502;2022-08-05T01:40:33;25.90;99.90
12049;DHT22;6085;49.452;8.502;2022-08-05T01:44:37;25.90;99.90
12049;DHT22;6085;49.452;8.502;2022-08-05T01:48:40;25.90;99.90
12049;DHT22;6085;49.452;8.502;2022-08-05T01:52:44;25.80;99.90
12049;DHT22;6085;49.452;8.502;2022-08-05T01:56:47;25.80;99.90
12049;DHT22;6085;49.452;8.502;2022-08-05T02:00:53;25.80;99.90
12049;DHT22;6085;49.452;8.502;2022-08-05T02:04:58;25.70;99.90
12049;DHT22;6085;49.452;8.502;2022-08-05T02:09:01;25.60;99.90
12049;DHT22;6085;49.452;8.502;2022-08-05T02:13:09;25.60;99.90
12049;DHT22;6085;49.452;8.502;2022-08-05T02:17:18;25.50;99.90
12049;DHT22;6085;49.452;8.502;2022-08-05T02:21:25;25.50;99.90
12049;DHT22;6085;49.452;8.502;2022-08-05T02:25:31;25.50;99.90
12049;DHT22;6085;49.452;8.502;2022-08-05T02:29:35;25.60;99.90
12049;DHT22;6085;49.452;8.502;2022-08-05T02:33:43;25.60;99.90
12049;DHT22;6085;49.452;8.502;2022-08-05T02:37:49;25.60;99.90
12049;DHT22;6085;49.452;8.502;2022-08-05T02:41:54;25.60;99.90
12049;DHT22;6085;49.452;8.502;2022-08-05T02:45:59;25.60;99.90
12049;DHT22;6085;49.452;8.502;2022-08-05T02:50:03;25.60;99.90
12049;DHT22;6085;49.452;8.502;2022-08-05T02:54:08;25.60;99.90
12049;DHT22;6085;49.452;8.502;2022-08-05T02:58:13;25.60;99.90
12049;DHT22;6085;49.452;8.502;2022-08-05T03:02:18;25.50;99.90
12049;DHT22;6085;49.452;8.502;2022-08-05T03:06:22;25.50;99.90
12049;DHT22;6085;49.452;8.502;2022-08-05T03:10:24;25.50;99.90
12049;DHT22;6085;49.452;8.502;2022-08-05T03:14:26;25.50;99.90
12049;DHT22;6085;49.452;8.502;2022-08-05T03:18:28;25.60;99.90
12049;DHT22;6085;49.452;8.502;2022-08-05T03:22:31;25.60;99.90
12049;DHT22;6085;49.452;8.502;2022-08-05T03:26:33;25.60;99.90
12049;DHT22;6085;49.452;8.502;2022-08-05T03:30:36;25.60;99.90
12049;DHT22;6085;49.452;8.502;2022-08-05T03:34:39;25.60;99.90
12049;DHT22;6085;49.452;8.502;2022-08-05T03:38:42;25.60;99.90
12049;DHT22;6085;49.452;8.502;2022-08-05T03:42:44;25.60;99.90
12049;DHT22;6085;49.452;8.502;2022-08-05T03:46:46;25.60;99.90
12049;DHT22;6085;49.452;8.502;2022-08-05T03:50:52;25.50;99.90
12049;DHT22;6085;49.452;8.502;2022-08-05T03:55:01;25.10;99.90
12049;DHT22;6085;49.452;8.502;2022-08-05T03:59:07;24.60;99.90
12049;DHT22;6085;49.452;8.502;2022-08-05T04:03:11;24.00;99.90
12049;DHT22;6085;49.452;8.502;2022-08-05T04:07:14;23.50;99.90
12049;DHT22;6085;49.452;8.502;2022-08-05T04:11:17;23.40;99.90
12049;DHT22;6085;49.452;8.502;2022-08-05T04:15:19;23.70;99.90
12049;DHT22;6085;49.452;8.502;2022-08-05T04:19:21;24.00;99.90
12049;DHT22;6085;49.452;8.502;2022-08-05T04:23:26;24.20;99.90
12049;DHT22;6085;49.452;8.502;2022-08-05T04:27:29;24.30;99.90
12049;DHT22;6085;49.452;8.502;2022-08-05T04:31:31;24.40;99.90
12049;DHT22;6085;49.452;8.502;2022-08-05T04:35:33;24.40;99.90
12049;DHT22;6085;49.452;8.502;2022-08-05T04:39:35;24.30;99.90
12049;DHT22;6085;49.452;8.502;2022-08-05T04:43:38;24.20;99.90
12049;DHT22;6085;49.452;8.502;2022-08-05T04:47:40;24.20;99.90
12049;DHT22;6085;49.452;8.502;2022-08-05T04:51:42;24.10;99.90
12049;DHT22;6085;49.452;8.502;2022-08-05T04:55:45;24.10;99.90
12049;DHT22;6085;49.452;8.502;2022-08-05T04:59:48;24.20;99.90
12049;DHT22;6085;49.452;8.502;2022-08-05T05:03:50;24.20;99.90
12049;DHT22;6085;49.452;8.502;2022-08-05T05:07:52;24.30;99.90
12049;DHT22;6085;49.452;8.502;2022-08-05T05:11:54;24.30;99.90
12049;DHT22;6085;49.452;8.502;2022-08-05T05:15:57;24.30;99.90
12049;DHT22;6085;49.452;8.502;2022-08-05T05:19:59;24.40;99.90
12049;DHT22;6085;49.452;8.502;2022-08-05T05:24:01;24.40;99.90
12049;DHT22;6085;49.452;8.502;2022-08-05T05:28:03;24.40;99.90
12049;DHT22;6085;49.452;8.502;2022-08-05T05:32:07;24.60;99.90
12049;DHT22;6085;49.452;8.502;2022-08-05T05:36:09;25.00;99.90
12049;DHT22;6085;49.452;8.502;2022-08-05T05:40:13;25.20;99.90
12049;DHT22;6085;49.452;8.502;2022-08-05T05:44:15;25.50;99.90
12049;DHT22;6085;49.452;8.502;2022-08-05T05:48:19;25.70;99.90
12049;DHT22;6085;49.452;8.502;2022-08-05T05:52:22;26.10;99.90
12049;DHT22;6085;49.452;8.502;2022-08-05T05:56:25;26.60;99.90
12049;DHT22;6085;49.452;8.502;2022-08-05T06:00:27;26.70;99.90
12049;DHT22;6085;49.452;8.502;2022-08-05T06:04:30;26.80;99.90
12049;DHT22;6085;49.452;8.502;2022-08-05T06:08:32;26.60;99.90
12049;DHT22;6085;49.452;8.502;2022-08-05T06:12:35;26.20;99.90
12049;DHT22;6085;49.452;8.502;2022-08-05T06:16:37;25.70;99.90
12049;DHT22;6085;49.452;8.502;2022-08-05T06:20:40;25.50;99.90
12049;DHT22;6085;49.452;8.502;2022-08-05T06:24:42;25.80;99.90
12049;DHT22;6085;49.452;8.502;2022-08-05T06:28:44;26.20;99.90
12049;DHT22;6085;49.452;8.502;2022-08-05T06:32:46;26.60;99.90
12049;DHT22;6085;49.452;8.502;2022-08-05T06:36:49;26.80;99.90
12049;DHT22;6085;49.452;8.502;2022-08-05T06:40:51;27.10;99.90
12049;DHT22;6085;49.452;8.502;2022-08-05T06:44:53;27.40;99.90
12049;DHT22;6085;49.452;8.502;2022-08-05T06:48:55;27.80;99.90
12049;DHT22;6085;49.452;8.502;2022-08-05T06:52:58;28.30;99.90
12049;DHT22;6085;49.452;8.502;2022-08-05T06:57:01;29.10;99.90
12049;DHT22;6085;49.452;8.502;2022-08-05T07:01:04;29.80;99.90
12049;DHT22;6085;49.452;8.502;2022-08-05T07:05:07;30.80;99.90
12049;DHT22;6085;49.452;8.502;2022-08-05T07:09:10;31.60;99.90
12049;DHT22;6085;49.452;8.502;2022-08-05T07:13:12;31.50;99.30
12049;DHT22;6085;49.452;8.502;2022-08-05T07:17:32;31.90;98.50
12049;DHT22;6085;49.452;8.502;2022-08-05T07:21:34;31.40;97.00
12049;DHT22;6085;49.452;8.502;2022-08-05T07:25:37;30.60;97.70
12049;DHT22;6085;49.452;8.502;2022-08-05T07:29:39;30.00;98.40
12049;DHT22;6085;49.452;8.502;2022-08-05T07:33:41;29.30;99.70
12049;DHT22;6085;49.452;8.502;2022-08-05T07:37:43;28.50;99.90
12049;DHT22;6085;49.452;8.502;2022-08-05T07:41:46;28.00;99.90
12049;DHT22;6085;49.452;8.502;2022-08-05T07:45:48;27.60;99.90
12049;DHT22;6085;49.452;8.502;2022-08-05T07:49:50;27.40;99.90
12049;DHT22;6085;49.452;8.502;2022-08-05T07:53:52;27.70;99.90
12049;DHT22;6085;49.452;8.502;2022-08-05T07:57:56;28.20;99.90
12049;DHT22;6085;49.452;8.502;2022-08-05T08:01:58;28.30;99.90
12049;DHT22;6085;49.452;8.502;2022-08-05T08:06:01;27.70;99.90
12049;DHT22;6085;49.452;8.502;2022-08-05T08:10:04;27.30;99.90
12049;DHT22;6085;49.452;8.502;2022-08-05T08:14:07;27.10;99.90
12049;DHT22;6085;49.452;8.502;2022-08-05T08:18:09;27.00;99.90
12049;DHT22;6085;49.452;8.502;2022-08-05T08:22:11;27.00;99.90
12049;DHT22;6085;49.452;8.502;2022-08-05T08:26:13;27.00;99.90
12049;DHT22;6085;49.452;8.502;2022-08-05T08:30:17;26.90;99.90
12049;DHT22;6085;49.452;8.502;2022-08-05T08:34:21;26.90;99.90
12049;DHT22;6085;49.452;8.502;2022-08-05T08:38:23;27.00;99.90
12049;DHT22;6085;49.452;8.502;2022-08-05T08:42:26;27.10;99.90
12049;DHT22;6085;49.452;8.502;2022-08-05T08:46:31;27.00;99.90
12049;DHT22;6085;49.452;8.502;2022-08-05T08:50:34;26.50;99.90
12049;DHT22;6085;49.452;8.502;2022-08-05T08:54:37;25.50;99.90
12049;DHT22;6085;49.452;8.502;2022-08-05T08:58:40;25.60;99.90
12049;DHT22;6085;49.452;8.502;2022-08-05T09:02:45;26.20;99.90
12049;DHT22;6085;49.452;8.502;2022-08-05T09:06:47;26.10;99.90
12049;DHT22;6085;49.452;8.502;2022-08-05T09:10:50;26.20;99.90
12049;DHT22;6085;49.452;8.502;2022-08-05T09:14:52;26.80;99.90
12049;DHT22;6085;49.452;8.502;2022-08-05T09:18:55;28.50;99.90
12049;DHT22;6085;49.452;8.502;2022-08-05T09:23:09;32.20;98.00
12049;DHT22;6085;49.452;8.502;2022-08-05T09:27:29;34.10;94.30
12049;DHT22;6085;49.452;8.502;2022-08-05T09:31:33;35.40;90.00
12049;DHT22;6085;49.452;8.502;2022-08-05T09:35:36;35.20;83.90
12049;DHT22;6085;49.452;8.502;2022-08-05T09:39:38;34.90;83.50
12049;DHT22;6085;49.452;8.502;2022-08-05T09:43:40;34.70;81.60
12049;DHT22;6085;49.452;8.502;2022-08-05T09:47:42;35.50;79.00
12049;DHT22;6085;49.452;8.502;2022-08-05T09:51:45;36.40;77.50
12049;DHT22;6085;49.452;8.502;2022-08-05T09:55:51;37.20;72.00
12049;DHT22;6085;49.452;8.502;2022-08-05T09:59:56;36.60;72.10
12049;DHT22;6085;49.452;8.502;2022-08-05T10:04:00;35.30;73.50
12049;DHT22;6085;49.452;8.502;2022-08-05T10:08:06;34.10;75.20
12049;DHT22;6085;49.452;8.502;2022-08-05T10:12:09;33.10;78.70
12049;DHT22;6085;49.452;8.502;2022-08-05T10:16:27;32.90;78.50
12049;DHT22;6085;49.452;8.502;2022-08-05T10:20:30;33.60;76.80
12049;DHT22;6085;49.452;8.502;2022-08-05T10:24:33;33.30;77.50
12049;DHT22;6085;49.452;8.502;2022-08-05T10:28:37;33.10;79.50
12049;DHT22;6085;49.452;8.502;2022-08-05T10:32:39;33.10;79.30
12049;DHT22;6085;49.452;8.502;2022-08-05T10:36:41;33.00;79.60
12049;DHT22;6085;49.452;8.502;2022-08-05T10:40:50;33.50;79.20
12049;DHT22;6085;49.452;8.502;2022-08-05T10:44:53;34.90;76.90
12049;DHT22;6085;49.452;8.502;2022-08-05T10:48:56;36.00;75.20
12049;DHT22;6085;49.452;8.502;2022-08-05T10:52:59;35.90;75.10
12049;DHT22;6085;49.452;8.502;2022-08-05T10:57:02;35.70;75.10
12049;DHT22;6085;49.452;8.502;2022-08-05T11:01:05;36.00;74.40
12049;DHT22;6085;49.452;8.502;2022-08-05T11:05:08;36.40;73.50
12049;DHT22;6085;49.452;8.502;2022-08-05T11:09:13;35.70;74.70
12049;DHT22;6085;49.452;8.502;2022-08-05T11:13:39;36.10;74.40
12049;DHT22;6085;49.452;8.502;2022-08-05T11:17:42;36.40;73.00
12049;DHT22;6085;49.452;8.502;2022-08-05T11:21:44;35.30;75.50
12049;DHT22;6085;49.452;8.502;2022-08-05T11:26:00;35.00;76.60
12049;DHT22;6085;49.452;8.502;2022-08-05T11:30:04;34.80;77.30
12049;DHT22;6085;49.452;8.502;2022-08-05T11:34:07;34.00;79.30
12049;DHT22;6085;49.452;8.502;2022-08-05T11:38:09;33.20;81.50
12049;DHT22;6085;49.452;8.502;2022-08-05T11:42:10;33.00;82.90
12049;DHT22;6085;49.452;8.502;2022-08-05T11:46:15;32.20;85.90
12049;DHT22;6085;49.452;8.502;2022-08-05T11:50:17;32.60;84.00
12049;DHT22;6085;49.452;8.502;2022-08-05T11:54:21;32.10;86.30
12049;DHT22;6085;49.452;8.502;2022-08-05T11:58:28;32.10;87.30
12049;DHT22;6085;49.452;8.502;2022-08-05T12:02:32;31.40;89.20
12049;DHT22;6085;49.452;8.502;2022-08-05T12:06:35;31.50;89.50
12049;DHT22;6085;49.452;8.502;2022-08-05T12:10:38;32.00;88.60
12049;DHT22;6085;49.452;8.502;2022-08-05T12:14:42;31.90;89.60
12049;DHT22;6085;49.452;8.502;2022-08-05T12:18:46;31.90;87.10
12049;DHT22;6085;49.452;8.502;2022-08-05T12:22:48;31.20;88.70
12049;DHT22;6085;49.452;8.502;2022-08-05T12:26:51;31.10;89.40
12049;DHT22;6085;49.452;8.502;2022-08-05T12:30:55;30.50;90.60
12049;DHT22;6085;49.452;8.502;2022-08-05T12:34:58;30.40;90.70
12049;DHT22;6085;49.452;8.502;2022-08-05T12:39:02;30.50;90.20
12049;DHT22;6085;49.452;8.502;2022-08-05T12:43:05;30.60;90.60
12049;DHT22;6085;49.452;8.502;2022-08-05T12:47:07;30.40;90.70
12049;DHT22;6085;49.452;8.502;2022-08-05T12:51:12;29.90;91.70
12049;DHT22;6085;49.452;8.502;2022-08-05T12:55:18;29.40;92.80
12049;DHT22;6085;49.452;8.502;2022-08-05T12:59:23;29.80;93.20
12049;DHT22;6085;49.452;8.502;2022-08-05T13:03:29;30.20;93.30
12049;DHT22;6085;49.452;8.502;2022-08-05T13:07:48;30.60;92.80
12049;DHT22;6085;49.452;8.502;2022-08-05T13:12:01;30.90;92.80
12049;DHT22;6085;49.452;8.502;2022-08-05T13:16:11;30.90;92.50
12049;DHT22;6085;49.452;8.502;2022-08-05T13:20:15;30.20;93.40
12049;DHT22;6085;49.452;8.502;2022-08-05T13:24:20;29.60;94.30
12049;DHT22;6085;49.452;8.502;2022-08-05T13:28:22;29.60;94.60
12049;DHT22;6085;49.452;8.502;2022-08-05T13:32:25;29.90;94.30
12049;DHT22;6085;49.452;8.502;2022-08-05T13:36:27;30.10;93.70
12049;DHT22;6085;49.452;8.502;2022-08-05T13:40:30;30.20;93.60
12049;DHT22;6085;49.452;8.502;2022-08-05T13:44:32;30.30;93.90
12049;DHT22;6085;49.452;8.502;2022-08-05T13:48:34;30.40;93.90
12049;DHT22;6085;49.452;8.502;2022-08-05T13:52:36;30.50;93.20
12049;DHT22;6085;49.452;8.502;2022-08-05T13:56:40;30.30;93.50
12049;DHT22;6085;49.452;8.502;2022-08-05T14:00:42;30.20;93.10
12049;DHT22;6085;49.452;8.502;2022-08-05T14:04:45;29.90;93.10
12049;DHT22;6085;49.452;8.502;2022-08-05T14:09:04;29.60;94.10
12049;DHT22;6085;49.452;8.502;2022-08-05T14:13:08;29.70;94.10
12049;DHT22;6085;49.452;8.502;2022-08-05T14:17:10;29.80;93.70
12049;DHT22;6085;49.452;8.502;2022-08-05T14:21:13;29.90;93.60
12049;DHT22;6085;49.452;8.502;2022-08-05T14:25:15;30.10;93.50
12049;DHT22;6085;49.452;8.502;2022-08-05T14:29:19;30.00;93.50
12049;DHT22;6085;49.452;8.502;2022-08-05T14:33:21;29.90;93.70
12049;DHT22;6085;49.452;8.502;2022-08-05T14:37:23;29.70;93.80
12049;DHT22;6085;49.452;8.502;2022-08-05T14:41:25;29.70;93.70
12049;DHT22;6085;49.452;8.502;2022-08-05T14:45:29;29.70;93.80
12049;DHT22;6085;49.452;8.502;2022-08-05T14:49:31;29.60;93.60
12049;DHT22;6085;49.452;8.502;2022-08-05T14:53:33;29.40;93.90
12049;DHT22;6085;49.452;8.502;2022-08-05T14:57:34;29.40;93.90
12049;DHT22;6085;49.452;8.502;2022-08-05T15:01:38;29.50;94.10
12049;DHT22;6085;49.452;8.502;2022-08-05T15:05:40;29.60;93.60
12049;DHT22;6085;49.452;8.502;2022-08-05T15:09:42;29.30;94.70
12049;DHT22;6085;49.452;8.502;2022-08-05T15:13:44;28.90;95.60
12049;DHT22;6085;49.452;8.502;2022-08-05T15:17:48;28.70;98.50
12049;DHT22;6085;49.452;8.502;2022-08-05T15:21:50;28.60;98.70
12049;DHT22;6085;49.452;8.502;2022-08-05T15:25:54;28.50;99.90
12049;DHT22;6085;49.452;8.502;2022-08-05T15:29:55;28.20;99.90
12049;DHT22;6085;49.452;8.502;2022-08-05T15:33:59;28.10;99.90
12049;DHT22;6085;49.452;8.502;2022-08-05T15:38:01;28.00;99.90
12049;DHT22;6085;49.452;8.502;2022-08-05T15:42:03;27.90;99.90
12049;DHT22;6085;49.452;8.502;2022-08-05T15:46:05;27.70;99.90
12049;DHT22;6085;49.452;8.502;2022-08-05T15:50:10;27.40;99.90
12049;DHT22;6085;49.452;8.502;2022-08-05T15:54:12;27.40;99.90
12049;DHT22;6085;49.452;8.502;2022-08-05T15:58:14;27.30;99.90
12049;DHT22;6085;49.452;8.502;2022-08-05T16:02:16;27.00;99.90
12049;DHT22;6085;49.452;8.502;2022-08-05T16:06:19;26.80;99.90
12049;DHT22;6085;49.452;8.502;2022-08-05T16:10:22;26.70;99.90
12049;DHT22;6085;49.452;8.502;2022-08-05T16:14:24;26.60;99.90
12049;DHT22;6085;49.452;8.502;2022-08-05T16:18:26;26.40;99.90
12049;DHT22;6085;49.452;8.502;2022-08-05T16:22:29;26.20;99.90
12049;DHT22;6085;49.452;8.502;2022-08-05T16:26:31;26.00;99.90
12049;DHT22;6085;49.452;8.502;2022-08-05T16:30:34;25.90;99.90
12049;DHT22;6085;49.452;8.502;2022-08-05T16:34:39;25.90;99.90
12049;DHT22;6085;49.452;8.502;2022-08-05T16:38:51;25.70;99.90
12049;DHT22;6085;49.452;8.502;2022-08-05T16:42:58;25.60;99.90
12049;DHT22;6085;49.452;8.502;2022-08-05T16:46:59;25.60;99.90
12049;DHT22;6085;49.452;8.502;2022-08-05T16:51:03;25.50;99.90
12049;DHT22;6085;49.452;8.502;2022-08-05T16:55:13;25.30;99.90
12049;DHT22;6085;49.452;8.502;2022-08-05T16:59:32;25.20;99.90
12049;DHT22;6085;49.452;8.502;2022-08-05T17:03:43;25.10;99.90
12049;DHT22;6085;49.452;8.502;2022-08-05T17:07:54;24.90;99.90
12049;DHT22;6085;49.452;8.502;2022-08-05T17:12:07;24.70;99.90
12049;DHT22;6085;49.452;8.502;2022-08-05T17:16:23;24.50;99.90
12049;DHT22;6085;49.452;8.502;2022-08-05T17:20:25;24.10;99.90
12049;DHT22;6085;49.452;8.502;2022-08-05T17:24:27;23.80;99.90
12049;DHT22;6085;49.452;8.502;2022-08-05T17:28:31;23.70;99.90
12049;DHT22;6085;49.452;8.502;2022-08-05T17:32:35;23.50;99.90
12049;DHT22;6085;49.452;8.502;2022-08-05T17:36:37;23.30;99.90
12049;DHT22;6085;49.452;8.502;2022-08-05T17:40:41;23.20;99.90
12049;DHT22;6085;49.452;8.502;2022-08-05T17:44:44;23.20;99.90
12049;DHT22;6085;49.452;8.502;2022-08-05T17:48:46;23.20;99.90
12049;DHT22;6085;49.452;8.502;2022-08-05T17:52:48;23.10;99.90
12049;DHT22;6085;49.452;8.502;2022-08-05T17:56:50;23.00;99.90
12049;DHT22;6085;49.452;8.502;2022-08-05T18:00:54;23.00;99.90
12049;DHT22;6085;49.452;8.502;2022-08-05T18:04:56;23.10;99.90
12049;DHT22;6085;49.452;8.502;2022-08-05T18:08:57;23.00;99.90
12049;DHT22;6085;49.452;8.502;2022-08-05T18:12:59;23.00;99.90
12049;DHT22;6085;49.452;8.502;2022-08-05T18:17:03;22.90;99.90
12049;DHT22;6085;49.452;8.502;2022-08-05T18:21:06;23.00;99.90
12049;DHT22;6085;49.452;8.502;2022-08-05T18:25:08;23.00;99.90
12049;DHT22;6085;49.452;8.502;2022-08-05T18:29:11;23.00;99.90
12049;DHT22;6085;49.452;8.502;2022-08-05T18:33:14;23.10;99.90
12049;DHT22;6085;49.452;8.502;2022-08-05T18:37:16;23.10;99.90
12049;DHT22;6085;49.452;8.502;2022-08-05T18:41:18;23.10;99.90
12049;DHT22;6085;49.452;8.502;2022-08-05T18:45:20;23.00;99.90
12049;DHT22;6085;49.452;8.502;2022-08-05T18:49:23;23.00;99.90
12049;DHT22;6085;49.452;8.502;2022-08-05T18:53:39;23.00;99.90
12049;DHT22;6085;49.452;8.502;2022-08-05T18:57:44;22.90;99.90
12049;DHT22;6085;49.452;8.502;2022-08-05T19:01:49;22.90;99.90
12049;DHT22;6085;49.452;8.502;2022-08-05T19:05:53;22.70;99.90
12049;DHT22;6085;49.452;8.502;2022-08-05T19:09:57;22.70;99.90
12049;DHT22;6085;49.452;8.502;2022-08-05T19:14:00;22.60;99.90
12049;DHT22;6085;49.452;8.502;2022-08-05T19:18:02;22.50;99.90
12049;DHT22;6085;49.452;8.502;2022-08-05T19:22:06;22.50;99.90
12049;DHT22;6085;49.452;8.502;2022-08-05T19:26:08;22.40;99.90
12049;DHT22;6085;49.452;8.502;2022-08-05T19:30:11;22.30;99.90
12049;DHT22;6085;49.452;8.502;2022-08-05T19:34:13;22.30;99.90
12049;DHT22;6085;49.452;8.502;2022-08-05T19:38:16;22.20;99.90
12049;DHT22;6085;49.452;8.502;2022-08-05T19:42:19;22.20;99.90
12049;DHT22;6085;49.452;8.502;2022-08-05T19:46:21;22.20;99.90
12049;DHT22;6085;49.452;8.502;2022-08-05T19:50:23;22.10;99.90
12049;DHT22;6085;49.452;8.502;2022-08-05T19:54:26;22.10;99.90
12049;DHT22;6085;49.452;8.502;2022-08-05T19:58:29;22.00;99.90
12049;DHT22;6085;49.452;8.502;2022-08-05T20:02:31;22.00;99.90
12049;DHT22;6085;49.452;8.502;2022-08-05T20:06:33;21.90;99.90
12049;DHT22;6085;49.452;8.502;2022-08-05T20:10:36;21.90;99.90
12049;DHT22;6085;49.452;8.502;2022-08-05T20:14:38;21.90;99.90
12049;DHT22;6085;49.452;8.502;2022-08-05T20:18:40;21.80;99.90
12049;DHT22;6085;49.452;8.502;2022-08-05T20:22:41;21.80;99.90
12049;DHT22;6085;49.452;8.502;2022-08-05T20:26:45;21.80;99.90
12049;DHT22;6085;49.452;8.502;2022-08-05T20:30:47;21.80;99.90
12049;DHT22;6085;49.452;8.502;2022-08-05T20:34:49;21.70;99.90
12049;DHT22;6085;49.452;8.502;2022-08-05T20:38:51;21.70;99.90
12049;DHT22;6085;49.452;8.502;2022-08-05T20:42:54;21.60;99.90
12049;DHT22;6085;49.452;8.502;2022-08-05T20:46:57;21.60;99.90
12049;DHT22;6085;49.452;8.502;2022-08-05T20:50:59;21.50;99.90
12049;DHT22;6085;49.452;8.502;2022-08-05T20:55:01;21.40;99.90
12049;DHT22;6085;49.452;8.502;2022-08-05T20:59:05;21.30;99.90
12049;DHT22;6085;49.452;8.502;2022-08-05T21:03:06;21.30;99.90
12049;DHT22;6085;49.452;8.502;2022-08-05T21:07:08;21.20;99.90
12049;DHT22;6085;49.452;8.502;2022-08-05T21:11:10;21.10;99.90
12049;DHT22;6085;49.452;8.502;2022-08-05T21:15:14;21.10;99.90
12049;DHT22;6085;49.452;8.502;2022-08-05T21:19:16;21.00;99.90
12049;DHT22;6085;49.452;8.502;2022-08-05T21:23:18;20.90;99.90
12049;DHT22;6085;49.452;8.502;2022-08-05T21:27:20;20.80;99.90
12049;DHT22;6085;49.452;8.502;2022-08-05T21:31:24;20.80;99.90
12049;DHT22;6085;49.452;8.502;2022-08-05T21:35:26;20.70;99.90
12049;DHT22;6085;49.452;8.502;2022-08-05T21:39:28;20.70;99.90
12049;DHT22;6085;49.452;8.502;2022-08-05T21:43:29;20.70;99.90
12049;DHT22;6085;49.452;8.502;2022-08-05T21:47:34;20.60;99.90
12049;DHT22;6085;49.452;8.502;2022-08-05T21:51:35;20.50;99.90
12049;DHT22;6085;49.452;8.502;2022-08-05T21:55:37;20.50;99.90
12049;DHT22;6085;49.452;8.502;2022-08-05T21:59:39;20.40;99.90
12049;DHT22;6085;49.452;8.502;2022-08-05T22:03:42;20.40;99.90
12049;DHT22;6085;49.452;8.502;2022-08-05T22:07:45;20.40;99.90
12049;DHT22;6085;49.452;8.502;2022-08-05T22:11:47;20.30;99.90
12049;DHT22;6085;49.452;8.502;2022-08-05T22:15:49;20.20;99.90
12049;DHT22;6085;49.452;8.502;2022-08-05T22:19:52;20.20;99.90
12049;DHT22;6085;49.452;8.502;2022-08-05T22:23:54;20.20;99.90
12049;DHT22;6085;49.452;8.502;2022-08-05T22:28:13;20.10;99.90
12049;DHT22;6085;49.452;8.502;2022-08-05T22:32:15;20.00;99.90
12049;DHT22;6085;49.452;8.502;2022-08-05T22:36:18;19.90;99.90
12049;DHT22;6085;49.452;8.502;2022-08-05T22:40:20;19.90;99.90
12049;DHT22;6085;49.452;8.502;2022-08-05T22:44:22;19.80;99.90
12049;DHT22;6085;49.452;8.502;2022-08-05T22:48:24;19.70;99.90
12049;DHT22;6085;49.452;8.502;2022-08-05T22:52:27;19.70;99.90
12049;DHT22;6085;49.452;8.502;2022-08-05T22:56:29;19.60;99.90
12049;DHT22;6085;49.452;8.502;2022-08-05T23:00:31;19.60;99.90
12049;DHT22;6085;49.452;8.502;2022-08-05T23:04:33;19.50;99.90
12049;DHT22;6085;49.452;8.502;2022-08-05T23:08:37;19.50;99.90
12049;DHT22;6085;49.452;8.502;2022-08-05T23:12:39;19.40;99.90
12049;DHT22;6085;49.452;8.502;2022-08-05T23:16:41;19.40;99.90
12049;DHT22;6085;49.452;8.502;2022-08-05T23:21:00;19.40;99.90
12049;DHT22;6085;49.452;8.502;2022-08-05T23:25:04;19.30;99.90
12049;DHT22;6085;49.452;8.502;2022-08-05T23:29:06;19.20;99.90
12049;DHT22;6085;49.452;8.502;2022-08-05T23:33:08;19.10;99.90
12049;DHT22;6085;49.452;8.502;2022-08-05T23:37:09;19.00;99.90
12049;DHT22;6085;49.452;8.502;2022-08-05T23:41:13;19.00;99.90
12049;DHT22;6085;49.452;8.502;2022-08-05T23:45:14;18.90;99.90
12049;DHT22;6085;49.452;8.502;2022-08-05T23:49:16;18.90;99.90
12049;DHT22;6085;49.452;8.502;2022-08-05T23:53:18;18.80;99.90
12049;DHT22;6085;49.452;8.502;2022-08-05T23:57:21;18.80;99.90
